sensor_id;sensor_type;location;lat;lon;timestamp;pressure;altitude;pressure_sealevel;temperature;humidity
56831;BME280;42713;42.676;23.352;2022-11-12T00:02:10;96127.25;;;9.58;73.28
56831;BME280;42713;42.676;23.352;2022-11-12T00:04:35;96120.22;;;9.58;72.83
56831;BME280;42713;42.676;23.352;2022-11-12T00:07:00;96109.97;;;9.57;73.62
56831;BME280;42713;42.676;23.352;2022-11-12T00:09:26;96104.72;;;9.50;72.85
56831;BME280;42713;42.676;23.352;2022-11-12T00:11:51;96099.09;;;9.40;73.76
56831;BME280;42713;42.676;23.352;2022-11-12T00:14:17;96104.50;;;9.31;74.27
56831;BME280;42713;42.676;23.352;2022-11-12T00:16:42;96109.13;;;9.16;75.66
56831;BME280;42713;42.676;23.352;2022-11-12T00:19:08;96099.84;;;9.07;76.21
56831;BME280;42713;42.676;23.352;2022-11-12T00:21:33;96108.28;;;8.95;76.44
56831;BME280;42713;42.676;23.352;2022-11-12T00:23:58;96105.66;;;8.95;77.13
56831;BME280;42713;42.676;23.352;2022-11-12T00:26:24;96113.88;;;8.92;77.42
56831;BME280;42713;42.676;23.352;2022-11-12T00:28:49;96109.47;;;8.99;77.23
56831;BME280;42713;42.676;23.352;2022-11-12T00:31:15;96113.94;;;9.06;76.85
56831;BME280;42713;42.676;23.352;2022-11-12T00:33:42;96106.50;;;9.09;76.45
56831;BME280;42713;42.676;23.352;2022-11-12T00:36:09;96110.13;;;9.15;76.90
56831;BME280;42713;42.676;23.352;2022-11-12T00:38:34;96112.94;;;9.20;76.57
56831;BME280;42713;42.676;23.352;2022-11-12T00:41:00;96109.31;;;9.21;76.30
56831;BME280;42713;42.676;23.352;2022-11-12T00:43:26;96106.50;;;9.29;76.53
56831;BME280;42713;42.676;23.352;2022-11-12T00:45:51;96109.75;;;9.31;75.49
56831;BME280;42713;42.676;23.352;2022-11-12T00:48:17;96107.13;;;9.31;75.49
56831;BME280;42713;42.676;23.352;2022-11-12T00:50:42;96111.34;;;9.32;75.36
56831;BME280;42713;42.676;23.352;2022-11-12T00:53:08;96111.53;;;9.38;75.46
56831;BME280;42713;42.676;23.352;2022-11-12T00:55:34;96111.75;;;9.36;74.93
56831;BME280;42713;42.676;23.352;2022-11-12T00:57:59;96109.13;;;9.36;75.42
56831;BME280;42713;42.676;23.352;2022-11-12T01:00:25;96091.63;;;9.37;75.43
56831;BME280;42713;42.676;23.352;2022-11-12T01:02:51;96080.38;;;9.36;75.18
56831;BME280;42713;42.676;23.352;2022-11-12T01:05:17;96075.16;;;9.36;75.30
56831;BME280;42713;42.676;23.352;2022-11-12T01:07:43;96078.97;;;9.33;75.00
56831;BME280;42713;42.676;23.352;2022-11-12T01:10:10;96090.22;;;9.34;75.04
56831;BME280;42713;42.676;23.352;2022-11-12T01:12:36;96097.06;;;9.28;75.25
56831;BME280;42713;42.676;23.352;2022-11-12T01:15:03;96093.63;;;9.21;75.55
56831;BME280;42713;42.676;23.352;2022-11-12T01:17:30;96085.59;;;9.16;75.36
56831;BME280;42713;42.676;23.352;2022-11-12T01:19:56;96084.38;;;9.12;75.73
56831;BME280;42713;42.676;23.352;2022-11-12T01:22:21;96085.38;;;9.11;75.83
56831;BME280;42713;42.676;23.352;2022-11-12T01:24:47;96086.34;;;9.03;75.98
56831;BME280;42713;42.676;23.352;2022-11-12T01:27:12;96082.34;;;9.00;76.40
56831;BME280;42713;42.676;23.352;2022-11-12T01:29:38;96090.19;;;9.07;76.17
56831;BME280;42713;42.676;23.352;2022-11-12T01:32:05;96088.78;;;9.11;75.49
56831;BME280;42713;42.676;23.352;2022-11-12T01:34:31;96083.75;;;9.10;75.64
56831;BME280;42713;42.676;23.352;2022-11-12T01:36:57;96078.13;;;9.06;75.79
56831;BME280;42713;42.676;23.352;2022-11-12T01:39:22;96075.72;;;9.11;76.30
56831;BME280;42713;42.676;23.352;2022-11-12T01:41:48;96078.16;;;9.19;76.13
56831;BME280;42713;42.676;23.352;2022-11-12T01:46:59;96069.69;;;9.31;74.86
56831;BME280;42713;42.676;23.352;2022-11-12T01:52:29;96069.50;;;9.32;74.18
56831;BME280;42713;42.676;23.352;2022-11-12T01:55:00;96076.53;;;9.39;72.96
56831;BME280;42713;42.676;23.352;2022-11-12T01:57:32;96065.47;;;9.37;73.70
56831;BME280;42713;42.676;23.352;2022-11-12T02:00:05;96072.13;;;9.39;72.91
56831;BME280;42713;42.676;23.352;2022-11-12T02:02:31;96063.88;;;9.35;73.58
56831;BME280;42713;42.676;23.352;2022-11-12T02:04:59;96058.06;;;9.40;73.08
56831;BME280;42713;42.676;23.352;2022-11-12T02:07:26;96061.69;;;9.39;72.92
56831;BME280;42713;42.676;23.352;2022-11-12T02:09:52;96062.25;;;9.41;73.01
56831;BME280;42713;42.676;23.352;2022-11-12T02:12:18;96055.84;;;9.44;72.23
56831;BME280;42713;42.676;23.352;2022-11-12T02:15:02;96072.13;;;9.46;71.75
56831;BME280;42713;42.676;23.352;2022-11-12T02:17:28;96073.53;;;9.48;71.47
56831;BME280;42713;42.676;23.352;2022-11-12T02:19:58;96072.13;;;9.46;71.80
56831;BME280;42713;42.676;23.352;2022-11-12T02:22:23;96073.34;;;9.43;72.27
56831;BME280;42713;42.676;23.352;2022-11-12T02:24:49;96078.97;;;9.40;72.31
56831;BME280;42713;42.676;23.352;2022-11-12T02:27:14;96071.31;;;9.32;72.93
56831;BME280;42713;42.676;23.352;2022-11-12T02:29:40;96075.13;;;9.29;73.36
56831;BME280;42713;42.676;23.352;2022-11-12T02:32:13;96069.31;;;9.27;74.04
56831;BME280;42713;42.676;23.352;2022-11-12T02:34:39;96076.56;;;9.25;74.33
56831;BME280;42713;42.676;23.352;2022-11-12T02:37:06;96071.94;;;9.21;73.90
56831;BME280;42713;42.676;23.352;2022-11-12T02:39:31;96073.94;;;9.25;73.67
56831;BME280;42713;42.676;23.352;2022-11-12T02:41:57;96068.50;;;9.27;73.58
56831;BME280;42713;42.676;23.352;2022-11-12T02:44:23;96065.50;;;9.23;73.35
56831;BME280;42713;42.676;23.352;2022-11-12T02:46:48;96060.44;;;9.22;73.08
56831;BME280;42713;42.676;23.352;2022-11-12T02:49:15;96062.88;;;9.16;73.15
56831;BME280;42713;42.676;23.352;2022-11-12T02:51:40;96061.88;;;9.24;72.14
56831;BME280;42713;42.676;23.352;2022-11-12T02:54:06;96054.03;;;9.24;71.33
56831;BME280;42713;42.676;23.352;2022-11-12T02:56:32;96054.22;;;9.23;71.31
56831;BME280;42713;42.676;23.352;2022-11-12T02:58:57;96059.66;;;9.21;70.67
56831;BME280;42713;42.676;23.352;2022-11-12T03:01:23;96055.22;;;9.22;71.10
56831;BME280;42713;42.676;23.352;2022-11-12T03:03:48;96059.03;;;9.19;70.83
56831;BME280;42713;42.676;23.352;2022-11-12T03:06:14;96064.69;;;9.16;72.09
56831;BME280;42713;42.676;23.352;2022-11-12T03:08:41;96068.06;;;9.10;72.56
56831;BME280;42713;42.676;23.352;2022-11-12T03:11:11;96062.66;;;9.11;71.77
56831;BME280;42713;42.676;23.352;2022-11-12T03:13:38;96064.69;;;9.16;71.59
56831;BME280;42713;42.676;23.352;2022-11-12T03:16:04;96068.50;;;9.20;70.92
56831;BME280;42713;42.676;23.352;2022-11-12T03:18:29;96054.00;;;9.11;71.04
56831;BME280;42713;42.676;23.352;2022-11-12T03:20:55;96061.06;;;9.10;71.03
56831;BME280;42713;42.676;23.352;2022-11-12T03:23:21;96072.28;;;9.04;71.13
56831;BME280;42713;42.676;23.352;2022-11-12T03:25:47;96072.09;;;8.99;71.30
56831;BME280;42713;42.676;23.352;2022-11-12T03:28:14;96070.69;;;8.96;71.77
56831;BME280;42713;42.676;23.352;2022-11-12T03:30:42;96075.06;;;8.89;71.64
56831;BME280;42713;42.676;23.352;2022-11-12T03:33:10;96071.84;;;8.87;71.63
56831;BME280;42713;42.676;23.352;2022-11-12T03:35:36;96075.25;;;8.81;71.96
56831;BME280;42713;42.676;23.352;2022-11-12T03:38:03;96074.66;;;8.79;71.75
56831;BME280;42713;42.676;23.352;2022-11-12T03:40:29;96062.81;;;8.83;71.59
56831;BME280;42713;42.676;23.352;2022-11-12T03:42:55;96068.22;;;8.75;72.13
56831;BME280;42713;42.676;23.352;2022-11-12T03:45:23;96069.84;;;8.76;72.45
56831;BME280;42713;42.676;23.352;2022-11-12T03:47:51;96066.41;;;8.75;71.55
56831;BME280;42713;42.676;23.352;2022-11-12T03:50:19;96071.22;;;8.71;71.72
56831;BME280;42713;42.676;23.352;2022-11-12T03:52:49;96068.81;;;8.70;71.19
56831;BME280;42713;42.676;23.352;2022-11-12T03:55:16;96070.00;;;8.67;71.28
56831;BME280;42713;42.676;23.352;2022-11-12T03:57:42;96066.97;;;8.64;71.34
56831;BME280;42713;42.676;23.352;2022-11-12T04:00:08;96069.19;;;8.67;71.37
56831;BME280;42713;42.676;23.352;2022-11-12T04:02:35;96077.06;;;8.74;71.14
56831;BME280;42713;42.676;23.352;2022-11-12T04:05:01;96071.25;;;8.78;70.48
56831;BME280;42713;42.676;23.352;2022-11-12T04:07:48;96072.63;;;8.74;70.53
56831;BME280;42713;42.676;23.352;2022-11-12T04:10:32;96068.00;;;8.76;70.24
56831;BME280;42713;42.676;23.352;2022-11-12T04:12:59;96062.19;;;8.81;69.52
56831;BME280;42713;42.676;23.352;2022-11-12T04:15:43;96056.34;;;8.79;69.74
56831;BME280;42713;42.676;23.352;2022-11-12T04:18:08;96053.38;;;8.82;70.10
56831;BME280;42713;42.676;23.352;2022-11-12T04:20:55;96061.59;;;8.79;69.83
56831;BME280;42713;42.676;23.352;2022-11-12T04:23:39;96057.78;;;8.75;69.13
56831;BME280;42713;42.676;23.352;2022-11-12T04:26:07;96053.53;;;8.74;68.94
56831;BME280;42713;42.676;23.352;2022-11-12T04:28:51;96045.09;;;8.71;69.06
56831;BME280;42713;42.676;23.352;2022-11-12T04:31:35;96050.28;;;8.65;69.10
56831;BME280;42713;42.676;23.352;2022-11-12T04:34:00;96044.06;;;8.66;68.26
56831;BME280;42713;42.676;23.352;2022-11-12T04:36:46;96055.34;;;8.66;69.10
56831;BME280;42713;42.676;23.352;2022-11-12T04:39:11;96049.25;;;8.52;67.87
56831;BME280;42713;42.676;23.352;2022-11-12T04:41:37;96059.25;;;8.42;68.25
56831;BME280;42713;42.676;23.352;2022-11-12T04:44:21;96052.56;;;8.26;68.80
56831;BME280;42713;42.676;23.352;2022-11-12T04:47:05;96055.34;;;8.18;68.64
56831;BME280;42713;42.676;23.352;2022-11-12T04:49:30;96056.91;;;8.12;69.65
56831;BME280;42713;42.676;23.352;2022-11-12T04:51:56;96053.47;;;8.12;69.69
56831;BME280;42713;42.676;23.352;2022-11-12T04:54:31;96063.28;;;8.03;70.29
56831;BME280;42713;42.676;23.352;2022-11-12T04:56:57;96064.63;;;7.92;70.52
56831;BME280;42713;42.676;23.352;2022-11-12T04:59:22;96076.66;;;7.93;70.31
56831;BME280;42713;42.676;23.352;2022-11-12T05:01:48;96064.41;;;7.87;70.38
56831;BME280;42713;42.676;23.352;2022-11-12T05:04:13;96079.66;;;7.90;71.30
56831;BME280;42713;42.676;23.352;2022-11-12T05:06:39;96073.63;;;7.89;71.50
56831;BME280;42713;42.676;23.352;2022-11-12T05:09:17;96076.03;;;7.91;71.29
56831;BME280;42713;42.676;23.352;2022-11-12T05:11:43;96083.13;;;7.97;70.83
56831;BME280;42713;42.676;23.352;2022-11-12T05:14:08;96078.38;;;8.07;70.70
56831;BME280;42713;42.676;23.352;2022-11-12T05:16:34;96081.38;;;8.11;70.43
56831;BME280;42713;42.676;23.352;2022-11-12T05:19:00;96085.63;;;8.19;70.36
56831;BME280;42713;42.676;23.352;2022-11-12T05:21:25;96089.28;;;8.24;70.29
56831;BME280;42713;42.676;23.352;2022-11-12T05:24:09;96098.72;;;8.25;70.13
56831;BME280;42713;42.676;23.352;2022-11-12T05:26:35;96089.28;;;8.24;69.66
56831;BME280;42713;42.676;23.352;2022-11-12T05:29:00;96089.88;;;8.26;69.41
56831;BME280;42713;42.676;23.352;2022-11-12T05:31:26;96092.53;;;8.33;69.51
56831;BME280;42713;42.676;23.352;2022-11-12T05:33:52;96097.97;;;8.38;69.52
56831;BME280;42713;42.676;23.352;2022-11-12T05:36:17;96097.38;;;8.43;68.94
56831;BME280;42713;42.676;23.352;2022-11-12T05:38:45;96091.00;;;8.46;68.21
56831;BME280;42713;42.676;23.352;2022-11-12T05:41:10;96089.56;;;8.43;68.09
56831;BME280;42713;42.676;23.352;2022-11-12T05:43:36;96100.06;;;8.50;67.76
56831;BME280;42713;42.676;23.352;2022-11-12T05:46:01;96099.28;;;8.49;68.10
56831;BME280;42713;42.676;23.352;2022-11-12T05:48:27;96091.03;;;8.52;67.93
56831;BME280;42713;42.676;23.352;2022-11-12T05:50:53;96098.09;;;8.59;67.61
56831;BME280;42713;42.676;23.352;2022-11-12T05:53:18;96098.13;;;8.65;67.00
56831;BME280;42713;42.676;23.352;2022-11-12T05:55:44;96098.94;;;8.66;67.16
56831;BME280;42713;42.676;23.352;2022-11-12T05:58:10;96105.56;;;8.68;66.71
56831;BME280;42713;42.676;23.352;2022-11-12T06:00:35;96100.75;;;8.72;66.13
56831;BME280;42713;42.676;23.352;2022-11-12T06:03:10;96108.81;;;8.77;66.18
56831;BME280;42713;42.676;23.352;2022-11-12T06:05:36;96109.22;;;8.81;65.90
56831;BME280;42713;42.676;23.352;2022-11-12T06:08:04;96111.84;;;8.81;65.89
56831;BME280;42713;42.676;23.352;2022-11-12T06:10:33;96117.44;;;8.78;66.32
56831;BME280;42713;42.676;23.352;2022-11-12T06:12:58;96111.84;;;8.81;65.15
56831;BME280;42713;42.676;23.352;2022-11-12T06:15:24;96118.47;;;8.83;65.42
56831;BME280;42713;42.676;23.352;2022-11-12T06:17:54;96113.25;;;8.83;65.24
56831;BME280;42713;42.676;23.352;2022-11-12T06:20:21;96117.69;;;8.90;66.06
56831;BME280;42713;42.676;23.352;2022-11-12T06:22:49;96109.03;;;8.89;65.48
56831;BME280;42713;42.676;23.352;2022-11-12T06:25:18;96111.88;;;8.87;65.13
56831;BME280;42713;42.676;23.352;2022-11-12T06:27:44;96116.50;;;8.92;65.71
56831;BME280;42713;42.676;23.352;2022-11-12T06:30:10;96103.22;;;8.94;66.10
56831;BME280;42713;42.676;23.352;2022-11-12T06:32:35;96111.69;;;9.02;65.58
56831;BME280;42713;42.676;23.352;2022-11-12T06:35:01;96105.06;;;9.07;65.11
56831;BME280;42713;42.676;23.352;2022-11-12T06:37:26;96106.06;;;9.12;64.90
56831;BME280;42713;42.676;23.352;2022-11-12T06:39:53;96110.13;;;9.15;64.73
56831;BME280;42713;42.676;23.352;2022-11-12T06:42:18;96120.97;;;9.18;65.22
56831;BME280;42713;42.676;23.352;2022-11-12T06:44:44;96113.31;;;9.17;64.71
56831;BME280;42713;42.676;23.352;2022-11-12T06:47:10;96127.81;;;9.19;64.61
56831;BME280;42713;42.676;23.352;2022-11-12T06:49:35;96129.22;;;9.22;64.29
56831;BME280;42713;42.676;23.352;2022-11-12T06:52:01;96131.25;;;9.27;64.43
56831;BME280;42713;42.676;23.352;2022-11-12T06:54:27;96126.44;;;9.30;65.03
56831;BME280;42713;42.676;23.352;2022-11-12T06:56:52;96124.59;;;9.31;64.85
56831;BME280;42713;42.676;23.352;2022-11-12T06:59:18;96131.84;;;9.35;64.63
56831;BME280;42713;42.676;23.352;2022-11-12T07:01:44;96128.22;;;9.37;64.04
56831;BME280;42713;42.676;23.352;2022-11-12T07:04:09;96128.22;;;9.37;64.02
56831;BME280;42713;42.676;23.352;2022-11-12T07:06:35;96120.81;;;9.40;64.60
56831;BME280;42713;42.676;23.352;2022-11-12T07:09:02;96129.47;;;9.41;65.30
56831;BME280;42713;42.676;23.352;2022-11-12T07:11:28;96121.22;;;9.44;64.27
56831;BME280;42713;42.676;23.352;2022-11-12T07:13:54;96121.00;;;9.45;64.85
56831;BME280;42713;42.676;23.352;2022-11-12T07:16:20;96119.63;;;9.49;65.18
56831;BME280;42713;42.676;23.352;2022-11-12T07:18:48;96120.81;;;9.54;64.38
56831;BME280;42713;42.676;23.352;2022-11-12T07:21:16;96117.19;;;9.61;63.37
56831;BME280;42713;42.676;23.352;2022-11-12T07:23:42;96114.78;;;9.66;62.91
56831;BME280;42713;42.676;23.352;2022-11-12T07:26:18;96115.78;;;9.72;63.96
56831;BME280;42713;42.676;23.352;2022-11-12T07:28:46;96102.91;;;9.71;63.15
56831;BME280;42713;42.676;23.352;2022-11-12T07:31:13;96112.97;;;9.74;62.42
56831;BME280;42713;42.676;23.352;2022-11-12T07:33:39;96121.63;;;9.81;61.64
56831;BME280;42713;42.676;23.352;2022-11-12T07:36:10;96115.38;;;9.82;61.99
56831;BME280;42713;42.676;23.352;2022-11-12T07:38:38;96109.72;;;9.85;61.17
56831;BME280;42713;42.676;23.352;2022-11-12T07:41:06;96115.19;;;9.90;61.33
56831;BME280;42713;42.676;23.352;2022-11-12T07:43:34;96112.94;;;9.94;61.94
56831;BME280;42713;42.676;23.352;2022-11-12T07:46:11;96110.53;;;9.99;60.89
56831;BME280;42713;42.676;23.352;2022-11-12T07:48:38;96123.03;;;10.04;60.70
56831;BME280;42713;42.676;23.352;2022-11-12T07:51:16;96118.97;;;10.08;60.52
56831;BME280;42713;42.676;23.352;2022-11-12T07:53:43;96123.81;;;10.11;60.21
56831;BME280;42713;42.676;23.352;2022-11-12T07:56:14;96116.75;;;10.11;58.84
56831;BME280;42713;42.676;23.352;2022-11-12T07:58:40;96115.34;;;10.16;58.91
56831;BME280;42713;42.676;23.352;2022-11-12T08:01:10;96117.97;;;10.16;58.71
56831;BME280;42713;42.676;23.352;2022-11-12T08:03:38;96117.75;;;10.17;58.69
56831;BME280;42713;42.676;23.352;2022-11-12T08:06:04;96124.59;;;10.18;58.84
56831;BME280;42713;42.676;23.352;2022-11-12T08:08:30;96126.22;;;10.19;58.58
56831;BME280;42713;42.676;23.352;2022-11-12T08:10:56;96130.44;;;10.20;58.26
56831;BME280;42713;42.676;23.352;2022-11-12T08:13:22;96128.22;;;10.17;58.32
56831;BME280;42713;42.676;23.352;2022-11-12T08:15:48;96131.44;;;10.19;58.07
56831;BME280;42713;42.676;23.352;2022-11-12T08:18:14;96136.28;;;10.22;57.77
56831;BME280;42713;42.676;23.352;2022-11-12T08:20:39;96132.66;;;10.23;58.28
56831;BME280;42713;42.676;23.352;2022-11-12T08:23:05;96135.84;;;10.25;58.34
56831;BME280;42713;42.676;23.352;2022-11-12T08:25:30;96133.44;;;10.31;58.48
56831;BME280;42713;42.676;23.352;2022-11-12T08:27:57;96132.03;;;10.28;57.84
56831;BME280;42713;42.676;23.352;2022-11-12T08:30:23;96138.25;;;10.34;58.08
56831;BME280;42713;42.676;23.352;2022-11-12T08:33:00;96137.69;;;10.38;58.45
56831;BME280;42713;42.676;23.352;2022-11-12T08:35:27;96145.72;;;10.43;58.01
56831;BME280;42713;42.676;23.352;2022-11-12T08:37:59;96139.69;;;10.43;57.20
56831;BME280;42713;42.676;23.352;2022-11-12T08:40:26;96140.06;;;10.47;57.92
56831;BME280;42713;42.676;23.352;2022-11-12T08:42:59;96136.44;;;10.48;57.21
56831;BME280;42713;42.676;23.352;2022-11-12T08:45:25;96137.63;;;10.52;56.79
56831;BME280;42713;42.676;23.352;2022-11-12T08:47:51;96147.09;;;10.53;56.47
56831;BME280;42713;42.676;23.352;2022-11-12T08:50:17;96143.47;;;10.54;57.01
56831;BME280;42713;42.676;23.352;2022-11-12T08:52:45;96146.28;;;10.59;56.62
56831;BME280;42713;42.676;23.352;2022-11-12T08:55:10;96142.44;;;10.62;57.27
56831;BME280;42713;42.676;23.352;2022-11-12T08:57:40;96139.78;;;10.68;56.50
56831;BME280;42713;42.676;23.352;2022-11-12T09:00:10;96139.16;;;10.73;57.13
56831;BME280;42713;42.676;23.352;2022-11-12T09:02:37;96132.47;;;10.84;57.04
56831;BME280;42713;42.676;23.352;2022-11-12T09:05:02;96129.84;;;10.90;56.99
56831;BME280;42713;42.676;23.352;2022-11-12T09:07:28;96129.38;;;11.00;56.50
56831;BME280;42713;42.676;23.352;2022-11-12T09:09:54;96130.19;;;11.01;55.81
56831;BME280;42713;42.676;23.352;2022-11-12T09:12:19;96139.41;;;11.10;55.39
56831;BME280;42713;42.676;23.352;2022-11-12T09:14:45;96125.06;;;11.13;55.13
56831;BME280;42713;42.676;23.352;2022-11-12T09:17:11;96125.47;;;11.16;55.12
56831;BME280;42713;42.676;23.352;2022-11-12T09:19:36;96122.63;;;11.18;54.21
56831;BME280;42713;42.676;23.352;2022-11-12T09:22:04;96126.44;;;11.22;54.83
56831;BME280;42713;42.676;23.352;2022-11-12T09:24:29;96125.56;;;11.28;54.52
56831;BME280;42713;42.676;23.352;2022-11-12T09:26:55;96116.88;;;11.34;53.85
56831;BME280;42713;42.676;23.352;2022-11-12T09:29:21;96122.69;;;11.36;53.23
56831;BME280;42713;42.676;23.352;2022-11-12T09:31:46;96135.28;;;11.28;53.56
56831;BME280;42713;42.676;23.352;2022-11-12T09:34:12;96123.03;;;11.21;52.54
56831;BME280;42713;42.676;23.352;2022-11-12T09:36:37;96129.31;;;11.14;52.10
56831;BME280;42713;42.676;23.352;2022-11-12T09:39:03;96134.19;;;11.10;52.74
56831;BME280;42713;42.676;23.352;2022-11-12T09:41:36;96132.38;;;11.04;52.45
56831;BME280;42713;42.676;23.352;2022-11-12T09:44:14;96137.03;;;11.02;52.74
56831;BME280;42713;42.676;23.352;2022-11-12T09:46:59;96137.25;;;11.00;52.04
56831;BME280;42713;42.676;23.352;2022-11-12T09:49:33;96130.22;;;10.94;52.64
56831;BME280;42713;42.676;23.352;2022-11-12T09:52:03;96135.50;;;10.87;52.99
56831;BME280;42713;42.676;23.352;2022-11-12T09:54:31;96137.88;;;10.89;52.60
56831;BME280;42713;42.676;23.352;2022-11-12T09:56:57;96140.13;;;10.85;53.08
56831;BME280;42713;42.676;23.352;2022-11-12T09:59:27;96143.34;;;10.87;52.81
56831;BME280;42713;42.676;23.352;2022-11-12T10:02:02;96141.34;;;10.89;52.51
56831;BME280;42713;42.676;23.352;2022-11-12T10:07:50;96135.47;;;10.94;53.21
56831;BME280;42713;42.676;23.352;2022-11-12T10:10:34;96134.88;;;10.92;52.67
56831;BME280;42713;42.676;23.352;2022-11-12T10:18:32;96130.59;;;10.98;51.52
56831;BME280;42713;42.676;23.352;2022-11-12T10:23:51;96134.00;;;10.98;52.98
56831;BME280;42713;42.676;23.352;2022-11-12T10:26:20;96137.25;;;11.00;52.56
56831;BME280;42713;42.676;23.352;2022-11-12T10:28:49;96143.50;;;10.99;53.08
56831;BME280;42713;42.676;23.352;2022-11-12T10:31:19;96132.63;;;10.96;53.64
56831;BME280;42713;42.676;23.352;2022-11-12T10:33:44;96132.03;;;10.94;53.61
56831;BME280;42713;42.676;23.352;2022-11-12T10:36:29;96131.44;;;10.92;54.01
56831;BME280;42713;42.676;23.352;2022-11-12T10:38:56;96136.88;;;10.90;54.31
56831;BME280;42713;42.676;23.352;2022-11-12T10:41:30;96129.22;;;10.88;54.51
56831;BME280;42713;42.676;23.352;2022-11-12T10:46:31;96124.25;;;10.80;54.11
56831;BME280;42713;42.676;23.352;2022-11-12T10:51:39;96127.84;;;10.86;54.81
56831;BME280;42713;42.676;23.352;2022-11-12T10:56:45;96126.41;;;10.83;54.57
56831;BME280;42713;42.676;23.352;2022-11-12T10:59:23;96129.22;;;10.88;55.11
56831;BME280;42713;42.676;23.352;2022-11-12T11:01:58;96130.25;;;10.87;55.83
56831;BME280;42713;42.676;23.352;2022-11-12T11:04:35;96130.41;;;10.93;56.41
56831;BME280;42713;42.676;23.352;2022-11-12T11:07:06;96135.03;;;10.97;56.20
56831;BME280;42713;42.676;23.352;2022-11-12T11:09:52;96129.59;;;10.99;55.72
56831;BME280;42713;42.676;23.352;2022-11-12T11:12:30;96129.19;;;11.02;55.04
56831;BME280;42713;42.676;23.352;2022-11-12T11:15:07;96121.47;;;11.07;55.67
56831;BME280;42713;42.676;23.352;2022-11-12T11:17:33;96120.69;;;11.07;55.09
56831;BME280;42713;42.676;23.352;2022-11-12T11:19:59;96125.06;;;11.13;56.00
56831;BME280;42713;42.676;23.352;2022-11-12T11:22:41;96123.84;;;11.15;55.43
56831;BME280;42713;42.676;23.352;2022-11-12T11:25:19;96125.22;;;11.18;55.39
56831;BME280;42713;42.676;23.352;2022-11-12T11:30:32;96113.09;;;11.24;54.92
56831;BME280;42713;42.676;23.352;2022-11-12T11:57:33;96110.97;;;11.46;54.84
56831;BME280;42713;42.676;23.352;2022-11-12T12:05:31;96119.47;;;11.41;55.84
56831;BME280;42713;42.676;23.352;2022-11-12T12:08:07;96118.41;;;11.42;55.02
56831;BME280;42713;42.676;23.352;2022-11-12T12:21:18;96102.13;;;11.40;54.78
56831;BME280;42713;42.676;23.352;2022-11-12T12:24:11;96105.13;;;11.44;55.22
56831;BME280;42713;42.676;23.352;2022-11-12T12:26:52;96100.88;;;11.43;55.20
56831;BME280;42713;42.676;23.352;2022-11-12T12:32:28;96104.13;;;11.38;54.71
56831;BME280;42713;42.676;23.352;2022-11-12T12:38:01;96115.28;;;11.33;55.11
56831;BME280;42713;42.676;23.352;2022-11-12T12:40:34;96104.41;;;11.30;55.29
56831;BME280;42713;42.676;23.352;2022-11-12T12:43:09;96099.16;;;11.30;55.62
56831;BME280;42713;42.676;23.352;2022-11-12T12:45:42;96095.94;;;11.28;55.67
56831;BME280;42713;42.676;23.352;2022-11-12T12:48:27;96103.59;;;11.29;54.77
56831;BME280;42713;42.676;23.352;2022-11-12T12:50:54;96100.75;;;11.31;54.98
56831;BME280;42713;42.676;23.352;2022-11-12T13:06:26;96098.47;;;11.09;57.17
56831;BME280;42713;42.676;23.352;2022-11-12T13:09:05;96109.50;;;11.18;57.59
56831;BME280;42713;42.676;23.352;2022-11-12T13:17:00;96122.22;;;11.14;59.26
56831;BME280;42713;42.676;23.352;2022-11-12T13:19:28;96120.84;;;11.12;59.68
56831;BME280;42713;42.676;23.352;2022-11-12T13:35:30;96132.59;;;11.02;61.18
56831;BME280;42713;42.676;23.352;2022-11-12T13:43:32;96129.63;;;10.92;61.80
56831;BME280;42713;42.676;23.352;2022-11-12T13:46:05;96128.03;;;10.84;62.22
56831;BME280;42713;42.676;23.352;2022-11-12T13:53:52;96122.03;;;10.77;62.47
56831;BME280;42713;42.676;23.352;2022-11-12T13:56:37;96119.22;;;10.72;62.50
56831;BME280;42713;42.676;23.352;2022-11-12T13:59:16;96118.19;;;10.73;62.85
56831;BME280;42713;42.676;23.352;2022-11-12T14:01:43;96122.44;;;10.74;62.50
56831;BME280;42713;42.676;23.352;2022-11-12T14:04:13;96112.38;;;10.71;62.50
56831;BME280;42713;42.676;23.352;2022-11-12T14:07:03;96107.94;;;10.71;62.97
56831;BME280;42713;42.676;23.352;2022-11-12T14:21:28;96110.78;;;10.70;62.82
56831;BME280;42713;42.676;23.352;2022-11-12T14:23:54;96105.91;;;10.73;63.12
56831;BME280;42713;42.676;23.352;2022-11-12T14:28:58;96114.56;;;10.74;63.15
56831;BME280;42713;42.676;23.352;2022-11-12T14:31:24;96110.34;;;10.73;63.39
56831;BME280;42713;42.676;23.352;2022-11-12T14:33:50;96113.19;;;10.65;62.73
56831;BME280;42713;42.676;23.352;2022-11-12T14:36:16;96123.91;;;10.63;62.86
56831;BME280;42713;42.676;23.352;2022-11-12T14:38:57;96121.28;;;10.56;63.66
56831;BME280;42713;42.676;23.352;2022-11-12T14:41:25;96118.06;;;10.54;63.89
56831;BME280;42713;42.676;23.352;2022-11-12T14:43:56;96115.50;;;10.48;64.44
56831;BME280;42713;42.676;23.352;2022-11-12T14:46:25;96121.13;;;10.45;64.05
56831;BME280;42713;42.676;23.352;2022-11-12T14:51:46;96111.66;;;10.37;64.58
56831;BME280;42713;42.676;23.352;2022-11-12T14:54:33;96113.66;;;10.35;64.93
56831;BME280;42713;42.676;23.352;2022-11-12T14:57:02;96104.41;;;10.32;65.48
56831;BME280;42713;42.676;23.352;2022-11-12T14:59:28;96119.91;;;10.34;64.81
56831;BME280;42713;42.676;23.352;2022-11-12T15:02:13;96125.75;;;10.36;65.15
56831;BME280;42713;42.676;23.352;2022-11-12T15:04:49;96122.97;;;10.37;64.41
56831;BME280;42713;42.676;23.352;2022-11-12T15:07:32;96120.38;;;10.37;64.74
56831;BME280;42713;42.676;23.352;2022-11-12T15:09:59;96116.31;;;10.28;65.07
56831;BME280;42713;42.676;23.352;2022-11-12T15:12:30;96114.72;;;10.27;64.90
56831;BME280;42713;42.676;23.352;2022-11-12T15:15:19;96110.09;;;10.22;65.14
56831;BME280;42713;42.676;23.352;2022-11-12T15:17:55;96107.47;;;10.22;65.34
56831;BME280;42713;42.676;23.352;2022-11-12T15:20:21;96109.50;;;10.20;64.64